Погода Натухайна 2 недели

Республика Адыгея, Россия

14 - 27 июля
  • 14июля
    Сегодня
    +21°
    +35°
    Ясно и безоблачно
    ВремяПогодаТемператураВлажностьДавлениеВетер, м/сВероятность осадков
    00:00Ясно и безоблачно+24°C30 %753 мм6.2 м/с2 %
    03:00Ясно и безоблачно+22°C27 %753 мм5.8 м/с2 %
    06:00Ясно и безоблачно+21°C32 %753 мм5.5 м/с2 %
    09:00Ясно и безоблачно+27°C29 %753 мм6.5 м/с2 %
    12:00Ясно и безоблачно+33°C18 %753 мм8.1 м/с2 %
    15:00Ясно и безоблачно+34°C17 %752 мм7.8 м/с2 %
    18:00Ясно и безоблачно+33°C21 %752 мм6.6 м/с2 %
    21:00Ясно и безоблачно+28°C24 %752 мм6.7 м/с2 %
  • 15июля
    Понедельник
    +23°
    +37°
    Облачно с прояснениями
    ВремяПогодаТемператураВлажностьДавлениеВетер, м/сВероятность осадков
    00:00Ясно и безоблачно+25°C25 %752 мм6.5 м/с2 %
    03:00Облачно с прояснениями+22°C32 %752 мм5.2 м/с2 %
    06:00Небольшая облачность+22°C38 %752 мм4.9 м/с2 %
    09:00Облачно с прояснениями+29°C31 %753 мм4.8 м/с2 %
    12:00Облачно с прояснениями+34°C23 %752 мм6.9 м/с2 %
    15:00Облачно с прояснениями+36°C22 %752 мм6.7 м/с2 %
    18:00Облачно с прояснениями+36°C24 %751 мм6.0 м/с2 %
    21:00Облачно с прояснениями+31°C26 %752 мм5.7 м/с2 %
  • 16июля
    Вторник
    +22°
    +40°
    Практически безоблачно
    ВремяПогодаТемператураВлажностьДавлениеВетер, м/сВероятность осадков
    00:00Небольшая облачность+28°C30 %752 мм5.4 м/с2 %
    03:00Облачно с прояснениями+25°C37 %752 мм4.4 м/с2 %
    06:00Облачно с прояснениями+24°C44 %752 мм2.9 м/с2 %
    09:00Облачно с прояснениями+31°C34 %753 мм3.2 м/с2 %
    12:00Небольшая облачность+37°C22 %753 мм5.5 м/с2 %
    15:00Практически безоблачно+39°C19 %752 мм5.6 м/с2 %
    18:00Ясно и безоблачно+38°C21 %752 мм5.6 м/с2 %
    21:00Небольшая облачность+31°C26 %752 мм4.3 м/с2 %
  • 17июля
    Среда
    +24°
    +41°
    Ясно и безоблачно
    ВремяПогодаТемператураВлажностьДавлениеВетер, м/сВероятность осадков
    00:00Ясно и безоблачно+27°C38 %753 мм2.4 м/с2 %
    03:00Ясно и безоблачно+24°C46 %753 мм2.7 м/с2 %
    06:00Ясно и безоблачно+25°C47 %753 мм2.4 м/с2 %
    09:00Ясно и безоблачно+33°C32 %754 мм2.3 м/с2 %
    12:00Ясно и безоблачно+39°C20 %753 мм4.7 м/с2 %
    15:00Ясно и безоблачно+40°C18 %753 мм5.2 м/с2 %
    18:00Ясно и безоблачно+39°C20 %752 мм5.3 м/с2 %
    21:00Ясно и безоблачно+33°C26 %753 мм4.3 м/с2 %
  • 18июля
    Четверг
    +23°
    +40°
    Ясно и безоблачно
    ВремяПогодаТемператураВлажностьДавлениеВетер, м/сВероятность осадков
    00:00Ясно и безоблачно+30°C34 %753 мм2.4 м/с2 %
    03:00Ясно и безоблачно+26°C43 %753 мм2.4 м/с2 %
    06:00Ясно и безоблачно+25°C50 %753 мм1.6 м/с2 %
    09:00Ясно и безоблачно+33°C33 %754 мм1.3 м/с2 %
    12:00Ясно и безоблачно+38°C20 %753 мм4.3 м/с2 %
    15:00Ясно и безоблачно+40°C19 %752 мм3.6 м/с2 %
    18:00Ясно и безоблачно+39°C19 %752 мм3.2 м/с2 %
    21:00Ясно и безоблачно+31°C34 %752 мм2.5 м/с2 %
Мы используем cookies
Соглашаюсь